Durant, Iowa
Current Conditions -  °F | °C
As of 6:52 PM on Wednesday 17 Dec 2014 (Local Time) from KDVN Reporting Station
Clear Clear  
Wind Chill: 12°   Ceiling: Unl
Heat Index: 19°   Visibility: 10mi
Dew Point: 14°   Wind: 5mph
Humidity: 81%   Direction: 300°WNW
Pressure: 30.3"   Gusts: NA
Location:  41.6°N, 90.91°W
Report Text: KDVN 180052Z AUTO 30004KT 10SM CLR M07/M10 A3030 RMK AO2 SLP272 T10721100
Loading
Personal Weather Stations






























Interactive Weather Map New forecast layout! Learn more

10-Day Weather Forecast

Advertisements
Track Severe Weather on mobile